sensor_id;sensor_type;location;lat;lon;timestamp;pressure;altitude;pressure_sealevel;temperature;humidity
12951;BME280;6540;50.858;7.232;2023-04-15T00:02:18;51866.66;;;-142.34;30.19
12951;BME280;6540;50.858;7.232;2023-04-15T00:04:45;51846.47;;;-142.34;29.05
12951;BME280;6540;50.858;7.232;2023-04-15T00:07:10;51866.66;;;-142.34;29.71
12951;BME280;6540;50.858;7.232;2023-04-15T00:09:35;51898.94;;;-142.34;29.63
12951;BME280;6540;50.858;7.232;2023-04-15T00:12:01;51850.50;;;-142.34;30.83
12951;BME280;6540;50.858;7.232;2023-04-15T00:14:26;51850.50;;;-142.34;30.85
12951;BME280;6540;50.858;7.232;2023-04-15T00:16:52;51874.72;;;-142.34;29.95
12951;BME280;6540;50.858;7.232;2023-04-15T00:19:20;51878.75;;;-142.34;30.58
12951;BME280;6540;50.858;7.232;2023-04-15T00:21:45;51886.81;;;-142.34;30.47
12951;BME280;6540;50.858;7.232;2023-04-15T00:24:11;51878.75;;;-142.34;29.32
12951;BME280;6540;50.858;7.232;2023-04-15T00:26:37;51874.72;;;-142.34;29.03
12951;BME280;6540;50.858;7.232;2023-04-15T00:29:02;51886.81;;;-142.34;30.06
12951;BME280;6540;50.858;7.232;2023-04-15T00:31:29;51874.72;;;-142.34;30.16
12951;BME280;6540;50.858;7.232;2023-04-15T00:33:54;51878.75;;;-142.34;29.92
12951;BME280;6540;50.858;7.232;2023-04-15T00:36:20;51852.53;;;-142.34;29.42
12951;BME280;6540;50.858;7.232;2023-04-15T00:38:45;51870.69;;;-142.34;29.02
12951;BME280;6540;50.858;7.232;2023-04-15T00:41:10;51894.88;;;-142.34;28.04
12951;BME280;6540;50.858;7.232;2023-04-15T00:43:36;51870.69;;;-142.34;27.73
12951;BME280;6540;50.858;7.232;2023-04-15T00:46:03;51870.69;;;-142.34;27.57
12951;BME280;6540;50.858;7.232;2023-04-15T00:48:30;51890.84;;;-142.34;28.31
12951;BME280;6540;50.858;7.232;2023-04-15T00:50:56;51907.00;;;-142.34;27.72
12951;BME280;6540;50.858;7.232;2023-04-15T00:53:21;51886.81;;;-142.34;27.22
12951;BME280;6540;50.858;7.232;2023-04-15T00:55:47;51902.97;;;-142.34;28.43
12951;BME280;6540;50.858;7.232;2023-04-15T00:58:12;51890.84;;;-142.34;28.70
12951;BME280;6540;50.858;7.232;2023-04-15T01:00:38;51846.47;;;-142.34;29.85
12951;BME280;6540;50.858;7.232;2023-04-15T01:03:05;51844.47;;;-142.34;30.71
12951;BME280;6540;50.858;7.232;2023-04-15T01:05:30;51886.81;;;-142.34;30.49
12951;BME280;6540;50.858;7.232;2023-04-15T01:07:56;51858.56;;;-142.34;29.83
12951;BME280;6540;50.858;7.232;2023-04-15T01:10:22;51898.94;;;-142.34;29.45
12951;BME280;6540;50.858;7.232;2023-04-15T01:12:47;51866.66;;;-142.34;30.81
12951;BME280;6540;50.858;7.232;2023-04-15T01:15:13;51846.47;;;-142.34;30.32
12951;BME280;6540;50.858;7.232;2023-04-15T01:17:39;51878.75;;;-142.34;30.15
12951;BME280;6540;50.858;7.232;2023-04-15T01:20:05;51902.97;;;-142.34;30.00
12951;BME280;6540;50.858;7.232;2023-04-15T01:22:32;51878.75;;;-142.34;29.68
12951;BME280;6540;50.858;7.232;2023-04-15T01:25:12;51870.69;;;-142.34;28.44
12951;BME280;6540;50.858;7.232;2023-04-15T01:27:42;51862.63;;;-142.34;31.47
12951;BME280;6540;50.858;7.232;2023-04-15T01:30:08;51876.72;;;-142.34;30.00
12951;BME280;6540;50.858;7.232;2023-04-15T01:32:34;51850.50;;;-142.34;29.12
12951;BME280;6540;50.858;7.232;2023-04-15T01:35:00;51890.84;;;-142.34;28.11
12951;BME280;6540;50.858;7.232;2023-04-15T01:37:25;51866.66;;;-142.34;30.36
12951;BME280;6540;50.858;7.232;2023-04-15T01:39:51;51866.66;;;-142.34;30.26
12951;BME280;6540;50.858;7.232;2023-04-15T01:42:16;51894.88;;;-142.34;30.02
12951;BME280;6540;50.858;7.232;2023-04-15T01:44:42;51854.53;;;-142.34;30.21
12951;BME280;6540;50.858;7.232;2023-04-15T01:47:07;51872.69;;;-142.34;30.60
12951;BME280;6540;50.858;7.232;2023-04-15T01:49:33;51872.69;;;-142.34;30.41
12951;BME280;6540;50.858;7.232;2023-04-15T01:51:58;51866.66;;;-142.34;30.31
12951;BME280;6540;50.858;7.232;2023-04-15T01:54:24;51878.75;;;-142.34;30.38
12951;BME280;6540;50.858;7.232;2023-04-15T01:56:50;51884.81;;;-142.34;31.10
12951;BME280;6540;50.858;7.232;2023-04-15T01:59:16;51892.88;;;-142.34;30.02
12951;BME280;6540;50.858;7.232;2023-04-15T02:01:41;51886.81;;;-142.34;29.38
12951;BME280;6540;50.858;7.232;2023-04-15T02:04:07;51909.00;;;-142.34;29.05
12951;BME280;6540;50.858;7.232;2023-04-15T02:06:40;51880.78;;;-142.34;29.22
12951;BME280;6540;50.858;7.232;2023-04-15T02:09:05;51909.00;;;-142.34;29.09
12951;BME280;6540;50.858;7.232;2023-04-15T02:11:31;51850.50;;;-142.34;28.37
12951;BME280;6540;50.858;7.232;2023-04-15T02:13:56;51882.78;;;-142.34;28.89
12951;BME280;6540;50.858;7.232;2023-04-15T02:16:21;51902.97;;;-142.34;29.02
12951;BME280;6540;50.858;7.232;2023-04-15T02:18:47;51886.81;;;-142.34;28.71
12951;BME280;6540;50.858;7.232;2023-04-15T02:21:12;51892.88;;;-142.34;28.08
12951;BME280;6540;50.858;7.232;2023-04-15T02:23:38;51935.25;;;-142.34;28.40
12951;BME280;6540;50.858;7.232;2023-04-15T02:26:03;51904.97;;;-142.34;27.60
12951;BME280;6540;50.858;7.232;2023-04-15T02:28:28;51870.69;;;-142.34;27.53
12951;BME280;6540;50.858;7.232;2023-04-15T02:30:54;51882.78;;;-142.34;27.27
12951;BME280;6540;50.858;7.232;2023-04-15T02:33:21;51878.75;;;-142.34;27.60
12951;BME280;6540;50.858;7.232;2023-04-15T02:35:47;51884.81;;;-142.34;28.19
12951;BME280;6540;50.858;7.232;2023-04-15T02:38:13;51886.81;;;-142.34;27.95
12951;BME280;6540;50.858;7.232;2023-04-15T02:40:40;51888.84;;;-142.34;29.01
12951;BME280;6540;50.858;7.232;2023-04-15T02:43:06;51876.72;;;-142.34;28.36
12951;BME280;6540;50.858;7.232;2023-04-15T02:45:32;51866.66;;;-142.34;28.58
12951;BME280;6540;50.858;7.232;2023-04-15T02:47:57;51862.63;;;-142.34;28.74
12951;BME280;6540;50.858;7.232;2023-04-15T02:50:22;51856.56;;;-142.34;29.07
12951;BME280;6540;50.858;7.232;2023-04-15T02:52:49;51886.81;;;-142.34;29.75
12951;BME280;6540;50.858;7.232;2023-04-15T02:55:15;51846.47;;;-142.34;30.12
12951;BME280;6540;50.858;7.232;2023-04-15T02:57:42;51846.47;;;-142.34;29.62
12951;BME280;6540;50.858;7.232;2023-04-15T03:00:08;51876.72;;;-142.34;28.29
12951;BME280;6540;50.858;7.232;2023-04-15T03:02:36;51874.72;;;-142.34;28.67
12951;BME280;6540;50.858;7.232;2023-04-15T03:05:02;51925.16;;;-142.34;28.51
12951;BME280;6540;50.858;7.232;2023-04-15T03:07:28;51890.84;;;-142.34;28.63
12951;BME280;6540;50.858;7.232;2023-04-15T03:09:53;51882.78;;;-142.34;29.17
12951;BME280;6540;50.858;7.232;2023-04-15T03:12:19;51874.72;;;-142.34;29.18
12951;BME280;6540;50.858;7.232;2023-04-15T03:14:44;51846.47;;;-142.34;29.87
12951;BME280;6540;50.858;7.232;2023-04-15T03:17:10;51878.75;;;-142.34;29.75
12951;BME280;6540;50.858;7.232;2023-04-15T03:19:36;51878.75;;;-142.34;28.75
12951;BME280;6540;50.858;7.232;2023-04-15T03:22:01;51878.75;;;-142.34;29.51
12951;BME280;6540;50.858;7.232;2023-04-15T03:24:27;51888.84;;;-142.34;29.47
12951;BME280;6540;50.858;7.232;2023-04-15T03:26:53;51886.81;;;-142.34;29.92
12951;BME280;6540;50.858;7.232;2023-04-15T03:29:19;51890.84;;;-142.34;29.95
12951;BME280;6540;50.858;7.232;2023-04-15T03:31:44;51866.66;;;-142.34;29.55
12951;BME280;6540;50.858;7.232;2023-04-15T03:34:10;51878.75;;;-142.34;28.97
12951;BME280;6540;50.858;7.232;2023-04-15T03:36:35;51917.06;;;-142.34;29.39
12951;BME280;6540;50.858;7.232;2023-04-15T03:39:01;51923.13;;;-142.34;29.42
12951;BME280;6540;50.858;7.232;2023-04-15T03:41:26;51882.78;;;-142.34;28.08
12951;BME280;6540;50.858;7.232;2023-04-15T03:43:53;51923.13;;;-142.34;28.06
12951;BME280;6540;50.858;7.232;2023-04-15T03:46:18;51876.72;;;-142.34;27.99
12951;BME280;6540;50.858;7.232;2023-04-15T03:48:44;51884.81;;;-142.34;27.51
12951;BME280;6540;50.858;7.232;2023-04-15T03:51:09;51915.06;;;-142.34;28.59
12951;BME280;6540;50.858;7.232;2023-04-15T03:53:35;51878.75;;;-142.34;29.27
12951;BME280;6540;50.858;7.232;2023-04-15T03:56:00;51874.72;;;-142.34;29.29
12951;BME280;6540;50.858;7.232;2023-04-15T03:58:26;51894.88;;;-142.34;29.19
12951;BME280;6540;50.858;7.232;2023-04-15T04:00:52;51876.72;;;-142.34;28.71
12951;BME280;6540;50.858;7.232;2023-04-15T04:03:17;51935.25;;;-142.34;28.17
12951;BME280;6540;50.858;7.232;2023-04-15T04:05:42;51862.63;;;-142.34;27.66
12951;BME280;6540;50.858;7.232;2023-04-15T04:08:09;51876.72;;;-142.34;27.02
12951;BME280;6540;50.858;7.232;2023-04-15T04:10:34;51894.88;;;-142.34;27.33
12951;BME280;6540;50.858;7.232;2023-04-15T04:13:00;51876.72;;;-142.34;27.24
12951;BME280;6540;50.858;7.232;2023-04-15T04:15:26;51900.94;;;-142.34;26.88
12951;BME280;6540;50.858;7.232;2023-04-15T04:17:51;51894.88;;;-142.34;27.59
12951;BME280;6540;50.858;7.232;2023-04-15T04:20:17;51890.84;;;-142.34;28.19
12951;BME280;6540;50.858;7.232;2023-04-15T04:22:42;51884.81;;;-142.34;28.54
12951;BME280;6540;50.858;7.232;2023-04-15T04:25:08;51890.84;;;-142.34;28.47
12951;BME280;6540;50.858;7.232;2023-04-15T04:27:34;51886.81;;;-142.34;28.60
12951;BME280;6540;50.858;7.232;2023-04-15T04:30:00;51886.81;;;-142.34;28.63
12951;BME280;6540;50.858;7.232;2023-04-15T04:32:26;51874.72;;;-142.34;28.78
12951;BME280;6540;50.858;7.232;2023-04-15T04:34:51;51888.84;;;-142.34;28.97
12951;BME280;6540;50.858;7.232;2023-04-15T04:37:16;51862.63;;;-142.34;28.65
12951;BME280;6540;50.858;7.232;2023-04-15T04:39:42;51913.03;;;-142.34;28.26
12951;BME280;6540;50.858;7.232;2023-04-15T04:42:07;51911.03;;;-142.34;29.09
12951;BME280;6540;50.858;7.232;2023-04-15T04:44:33;51894.88;;;-142.34;29.57
12951;BME280;6540;50.858;7.232;2023-04-15T04:46:58;51892.88;;;-142.34;28.93
12951;BME280;6540;50.858;7.232;2023-04-15T04:49:23;51888.84;;;-142.34;28.83
12951;BME280;6540;50.858;7.232;2023-04-15T04:51:49;51886.81;;;-142.34;28.22
12951;BME280;6540;50.858;7.232;2023-04-15T04:54:14;51884.81;;;-142.34;28.69
12951;BME280;6540;50.858;7.232;2023-04-15T04:56:40;51900.94;;;-142.34;28.19
12951;BME280;6540;50.858;7.232;2023-04-15T04:59:05;51878.75;;;-142.34;27.58
12951;BME280;6540;50.858;7.232;2023-04-15T05:01:31;51909.00;;;-142.34;27.12
12951;BME280;6540;50.858;7.232;2023-04-15T05:03:57;51902.97;;;-142.34;27.67
12951;BME280;6540;50.858;7.232;2023-04-15T05:06:22;51902.97;;;-142.34;27.61
12951;BME280;6540;50.858;7.232;2023-04-15T05:08:48;51919.09;;;-142.34;27.66
12951;BME280;6540;50.858;7.232;2023-04-15T05:11:13;51876.72;;;-142.34;27.96
12951;BME280;6540;50.858;7.232;2023-04-15T05:13:38;51894.88;;;-142.34;28.04
12951;BME280;6540;50.858;7.232;2023-04-15T05:16:04;51915.06;;;-142.34;27.41
12951;BME280;6540;50.858;7.232;2023-04-15T05:18:30;51931.19;;;-142.34;27.76
12951;BME280;6540;50.858;7.232;2023-04-15T05:20:56;51894.88;;;-142.34;27.24
12951;BME280;6540;50.858;7.232;2023-04-15T05:23:21;51892.88;;;-142.34;28.19
12951;BME280;6540;50.858;7.232;2023-04-15T05:25:47;51888.84;;;-142.34;28.07
12951;BME280;6540;50.858;7.232;2023-04-15T05:28:12;51902.97;;;-142.34;27.65
12951;BME280;6540;50.858;7.232;2023-04-15T05:30:38;51909.00;;;-142.34;28.13
12951;BME280;6540;50.858;7.232;2023-04-15T05:33:03;51870.69;;;-142.34;27.26
12951;BME280;6540;50.858;7.232;2023-04-15T05:35:29;51907.00;;;-142.34;27.79
12951;BME280;6540;50.858;7.232;2023-04-15T05:37:54;51878.75;;;-142.34;28.21
12951;BME280;6540;50.858;7.232;2023-04-15T05:40:20;51878.75;;;-142.34;28.90
12951;BME280;6540;50.858;7.232;2023-04-15T05:42:45;51882.78;;;-142.34;29.22
12951;BME280;6540;50.858;7.232;2023-04-15T05:45:10;51882.78;;;-142.34;28.81
12951;BME280;6540;50.858;7.232;2023-04-15T05:47:36;51882.78;;;-142.34;27.63
12951;BME280;6540;50.858;7.232;2023-04-15T05:50:02;51911.03;;;-142.34;27.44
12951;BME280;6540;50.858;7.232;2023-04-15T05:52:28;51858.56;;;-142.34;27.37
12951;BME280;6540;50.858;7.232;2023-04-15T05:54:54;51878.75;;;-142.34;27.02
12951;BME280;6540;50.858;7.232;2023-04-15T05:57:20;51866.66;;;-142.34;26.75
12951;BME280;6540;50.858;7.232;2023-04-15T05:59:45;51866.66;;;-142.34;27.05
12951;BME280;6540;50.858;7.232;2023-04-15T06:02:11;51854.53;;;-142.34;26.78
12951;BME280;6540;50.858;7.232;2023-04-15T06:04:37;51862.63;;;-142.34;26.75
12951;BME280;6540;50.858;7.232;2023-04-15T06:07:03;51852.53;;;-142.34;27.74
12951;BME280;6540;50.858;7.232;2023-04-15T06:09:28;51864.63;;;-142.34;28.05
12951;BME280;6540;50.858;7.232;2023-04-15T06:11:54;51874.72;;;-142.34;28.39
12951;BME280;6540;50.858;7.232;2023-04-15T06:14:21;51866.66;;;-142.34;28.56
12951;BME280;6540;50.858;7.232;2023-04-15T06:16:46;51854.53;;;-142.34;28.58
12951;BME280;6540;50.858;7.232;2023-04-15T06:19:11;51858.56;;;-142.34;27.91
12951;BME280;6540;50.858;7.232;2023-04-15T06:21:37;51872.69;;;-142.34;27.48
12951;BME280;6540;50.858;7.232;2023-04-15T06:24:02;51862.63;;;-142.34;28.04
12951;BME280;6540;50.858;7.232;2023-04-15T06:26:28;51882.78;;;-142.34;27.87
12951;BME280;6540;50.858;7.232;2023-04-15T06:28:53;51846.47;;;-142.34;28.54
12951;BME280;6540;50.858;7.232;2023-04-15T06:31:18;51862.63;;;-142.34;27.50
12951;BME280;6540;50.858;7.232;2023-04-15T06:33:44;51822.25;;;-142.34;26.71
12951;BME280;6540;50.858;7.232;2023-04-15T06:36:09;51852.53;;;-142.34;26.52
12951;BME280;6540;50.858;7.232;2023-04-15T06:38:35;51812.19;;;-142.34;26.83
12951;BME280;6540;50.858;7.232;2023-04-15T06:41:00;51792.00;;;-142.34;26.15
12951;BME280;6540;50.858;7.232;2023-04-15T06:43:27;51830.34;;;-142.34;26.52
12951;BME280;6540;50.858;7.232;2023-04-15T06:45:52;51820.25;;;-142.34;26.74
12951;BME280;6540;50.858;7.232;2023-04-15T06:48:18;51854.53;;;-142.34;27.49
12951;BME280;6540;50.858;7.232;2023-04-15T06:50:43;51794.03;;;-142.34;26.63
12951;BME280;6540;50.858;7.232;2023-04-15T06:53:08;51812.19;;;-142.34;26.64
12951;BME280;6540;50.858;7.232;2023-04-15T06:55:34;51828.31;;;-142.34;26.83
12951;BME280;6540;50.858;7.232;2023-04-15T06:57:59;51790.00;;;-142.34;26.63
12951;BME280;6540;50.858;7.232;2023-04-15T07:00:24;51822.25;;;-142.34;26.74
12951;BME280;6540;50.858;7.232;2023-04-15T07:02:50;51798.06;;;-142.34;27.10
12951;BME280;6540;50.858;7.232;2023-04-15T07:05:15;51779.91;;;-142.34;26.64
12951;BME280;6540;50.858;7.232;2023-04-15T07:07:41;51798.06;;;-142.34;26.46
12951;BME280;6540;50.858;7.232;2023-04-15T07:10:07;51818.22;;;-142.34;26.90
12951;BME280;6540;50.858;7.232;2023-04-15T07:12:32;51820.25;;;-142.34;27.21
12951;BME280;6540;50.858;7.232;2023-04-15T07:14:59;51798.06;;;-142.34;26.56
12951;BME280;6540;50.858;7.232;2023-04-15T07:17:24;51785.94;;;-142.34;25.83
12951;BME280;6540;50.858;7.232;2023-04-15T07:19:50;51828.31;;;-142.34;26.12
12951;BME280;6540;50.858;7.232;2023-04-15T07:22:15;51761.75;;;-142.34;25.74
12951;BME280;6540;50.858;7.232;2023-04-15T07:24:41;51771.84;;;-142.34;27.03
12951;BME280;6540;50.858;7.232;2023-04-15T07:27:06;51765.78;;;-142.34;25.95
12951;BME280;6540;50.858;7.232;2023-04-15T07:29:32;51773.84;;;-142.34;26.20
12951;BME280;6540;50.858;7.232;2023-04-15T07:31:57;51765.78;;;-142.34;25.97
12951;BME280;6540;50.858;7.232;2023-04-15T07:34:23;51761.75;;;-142.34;25.48
12951;BME280;6540;50.858;7.232;2023-04-15T07:36:48;51749.66;;;-142.34;25.54
12951;BME280;6540;50.858;7.232;2023-04-15T07:39:16;51753.69;;;-142.34;26.51
12951;BME280;6540;50.858;7.232;2023-04-15T07:41:42;51765.78;;;-142.34;25.83
12951;BME280;6540;50.858;7.232;2023-04-15T07:44:07;51765.78;;;-142.34;25.27
12951;BME280;6540;50.858;7.232;2023-04-15T07:46:33;51771.84;;;-142.34;26.63
12951;BME280;6540;50.858;7.232;2023-04-15T07:48:58;51737.53;;;-142.34;25.83
12951;BME280;6540;50.858;7.232;2023-04-15T07:51:24;51749.66;;;-142.34;25.90
12951;BME280;6540;50.858;7.232;2023-04-15T07:53:50;51773.84;;;-142.34;27.31
12951;BME280;6540;50.858;7.232;2023-04-15T07:56:15;51777.88;;;-142.34;27.04
12951;BME280;6540;50.858;7.232;2023-04-15T07:58:41;51779.91;;;-142.34;25.93
12951;BME280;6540;50.858;7.232;2023-04-15T08:01:07;51757.72;;;-142.34;25.80
12951;BME280;6540;50.858;7.232;2023-04-15T08:03:32;51810.16;;;-142.34;27.73
12951;BME280;6540;50.858;7.232;2023-04-15T08:05:58;51781.91;;;-142.34;27.33
12951;BME280;6540;50.858;7.232;2023-04-15T08:08:23;51798.06;;;-142.34;28.02
12951;BME280;6540;50.858;7.232;2023-04-15T08:10:49;51792.00;;;-142.34;26.64
12951;BME280;6540;50.858;7.232;2023-04-15T08:13:15;51777.88;;;-142.34;25.90
12951;BME280;6540;50.858;7.232;2023-04-15T08:15:40;51777.88;;;-142.34;25.93
12951;BME280;6540;50.858;7.232;2023-04-15T08:18:06;51749.66;;;-142.34;25.43
12951;BME280;6540;50.858;7.232;2023-04-15T08:20:31;51727.44;;;-142.34;24.52
12951;BME280;6540;50.858;7.232;2023-04-15T08:22:57;51737.53;;;-142.34;24.92
12951;BME280;6540;50.858;7.232;2023-04-15T08:25:22;51751.66;;;-142.34;24.92
12951;BME280;6540;50.858;7.232;2023-04-15T08:27:47;51779.91;;;-142.34;25.92
12951;BME280;6540;50.858;7.232;2023-04-15T08:30:13;51733.50;;;-142.34;25.36
12951;BME280;6540;50.858;7.232;2023-04-15T08:32:44;51785.94;;;-142.34;26.85
12951;BME280;6540;50.858;7.232;2023-04-15T08:35:11;51761.75;;;-142.34;26.01
12951;BME280;6540;50.858;7.232;2023-04-15T08:37:36;51818.22;;;-142.34;27.63
12951;BME280;6540;50.858;7.232;2023-04-15T08:40:02;51765.78;;;-142.34;26.32
12951;BME280;6540;50.858;7.232;2023-04-15T08:42:36;51798.06;;;-142.34;25.07
12951;BME280;6540;50.858;7.232;2023-04-15T08:45:03;51785.94;;;-142.34;26.61
12951;BME280;6540;50.858;7.232;2023-04-15T08:47:29;51783.94;;;-142.34;25.95
12951;BME280;6540;50.858;7.232;2023-04-15T08:49:58;51763.75;;;-142.34;26.48
12951;BME280;6540;50.858;7.232;2023-04-15T08:52:30;51773.84;;;-142.34;25.12
12951;BME280;6540;50.858;7.232;2023-04-15T08:54:56;51765.78;;;-142.34;26.22
12951;BME280;6540;50.858;7.232;2023-04-15T08:57:25;51757.72;;;-142.34;24.93
12951;BME280;6540;50.858;7.232;2023-04-15T08:59:52;51769.81;;;-142.34;24.92
12951;BME280;6540;50.858;7.232;2023-04-15T09:02:17;51765.78;;;-142.34;24.31
12951;BME280;6540;50.858;7.232;2023-04-15T09:04:43;51765.78;;;-142.34;26.32
12951;BME280;6540;50.858;7.232;2023-04-15T09:07:08;51779.91;;;-142.34;26.79
12951;BME280;6540;50.858;7.232;2023-04-15T09:09:33;51806.13;;;-142.34;26.68
12951;BME280;6540;50.858;7.232;2023-04-15T09:12:01;51753.69;;;-142.34;25.16
12951;BME280;6540;50.858;7.232;2023-04-15T09:14:28;51757.72;;;-142.34;24.57
12951;BME280;6540;50.858;7.232;2023-04-15T09:17:03;51751.66;;;-142.34;25.15
12951;BME280;6540;50.858;7.232;2023-04-15T09:19:29;51753.69;;;-142.34;25.16
12951;BME280;6540;50.858;7.232;2023-04-15T09:21:56;51765.78;;;-142.34;25.00
12951;BME280;6540;50.858;7.232;2023-04-15T09:24:22;51751.66;;;-142.34;24.78
12951;BME280;6540;50.858;7.232;2023-04-15T09:26:51;51749.66;;;-142.34;24.99
12951;BME280;6540;50.858;7.232;2023-04-15T09:29:17;51749.66;;;-142.34;26.15
12951;BME280;6540;50.858;7.232;2023-04-15T09:31:42;51753.69;;;-142.34;25.41
12951;BME280;6540;50.858;7.232;2023-04-15T09:34:08;51796.03;;;-142.34;26.74
12951;BME280;6540;50.858;7.232;2023-04-15T09:39:11;51773.84;;;-142.34;25.09
12951;BME280;6540;50.858;7.232;2023-04-15T09:41:37;51785.94;;;-142.34;25.61
12951;BME280;6540;50.858;7.232;2023-04-15T09:44:03;51777.88;;;-142.34;24.90
12951;BME280;6540;50.858;7.232;2023-04-15T09:46:42;51745.59;;;-142.34;24.41
12951;BME280;6540;50.858;7.232;2023-04-15T09:49:08;51765.78;;;-142.34;25.73
12951;BME280;6540;50.858;7.232;2023-04-15T09:51:35;51753.69;;;-142.34;25.90
12951;BME280;6540;50.858;7.232;2023-04-15T09:54:00;51794.03;;;-142.34;25.07
12951;BME280;6540;50.858;7.232;2023-04-15T09:56:33;51757.72;;;-142.34;25.48
12951;BME280;6540;50.858;7.232;2023-04-15T09:59:00;51769.81;;;-142.34;25.40
12951;BME280;6540;50.858;7.232;2023-04-15T10:01:25;51757.72;;;-142.34;24.69
12951;BME280;6540;50.858;7.232;2023-04-15T10:03:52;51749.66;;;-142.34;25.41
12951;BME280;6540;50.858;7.232;2023-04-15T10:06:20;51775.88;;;-142.34;24.80
12951;BME280;6540;50.858;7.232;2023-04-15T10:08:47;51711.31;;;-142.34;23.87
12951;BME280;6540;50.858;7.232;2023-04-15T10:11:13;51735.53;;;-142.34;24.27
12951;BME280;6540;50.858;7.232;2023-04-15T10:13:39;51733.50;;;-142.34;23.97
12951;BME280;6540;50.858;7.232;2023-04-15T10:16:11;51729.47;;;-142.34;24.32
12951;BME280;6540;50.858;7.232;2023-04-15T10:18:44;51729.47;;;-142.34;25.34
12951;BME280;6540;50.858;7.232;2023-04-15T10:21:09;51745.59;;;-142.34;24.56
12951;BME280;6540;50.858;7.232;2023-04-15T10:23:35;51713.34;;;-142.34;24.43
12951;BME280;6540;50.858;7.232;2023-04-15T10:26:03;51693.16;;;-142.34;26.02
12951;BME280;6540;50.858;7.232;2023-04-15T10:28:28;51729.47;;;-142.34;25.22
12951;BME280;6540;50.858;7.232;2023-04-15T10:30:54;51733.50;;;-142.34;24.71
12951;BME280;6540;50.858;7.232;2023-04-15T10:33:22;51729.47;;;-142.34;24.68
12951;BME280;6540;50.858;7.232;2023-04-15T10:35:49;51753.69;;;-142.34;25.79
12951;BME280;6540;50.858;7.232;2023-04-15T10:38:38;51725.44;;;-142.34;24.66
12951;BME280;6540;50.858;7.232;2023-04-15T10:41:17;51733.50;;;-142.34;25.38
12951;BME280;6540;50.858;7.232;2023-04-15T10:43:55;51745.59;;;-142.34;25.17
12951;BME280;6540;50.858;7.232;2023-04-15T10:46:39;51739.56;;;-142.34;24.87
12951;BME280;6540;50.858;7.232;2023-04-15T10:49:10;51749.66;;;-142.34;25.32
12951;BME280;6540;50.858;7.232;2023-04-15T10:51:38;51687.09;;;-142.34;24.32
12951;BME280;6540;50.858;7.232;2023-04-15T10:54:09;51749.66;;;-142.34;25.80
12951;BME280;6540;50.858;7.232;2023-04-15T10:56:37;51743.59;;;-142.34;25.08
12951;BME280;6540;50.858;7.232;2023-04-15T10:59:05;51721.41;;;-142.34;25.21
12951;BME280;6540;50.858;7.232;2023-04-15T11:01:59;51737.53;;;-142.34;25.30
12951;BME280;6540;50.858;7.232;2023-04-15T11:07:35;51765.78;;;-142.34;25.90
12951;BME280;6540;50.858;7.232;2023-04-15T11:10:02;51717.38;;;-142.34;25.07
12951;BME280;6540;50.858;7.232;2023-04-15T11:12:34;51741.56;;;-142.34;25.54
12951;BME280;6540;50.858;7.232;2023-04-15T11:18:27;51687.09;;;-142.34;24.52
12951;BME280;6540;50.858;7.232;2023-04-15T11:21:05;51723.41;;;-142.34;25.50
12951;BME280;6540;50.858;7.232;2023-04-15T11:23:37;51668.97;;;-142.34;24.68
12951;BME280;6540;50.858;7.232;2023-04-15T11:26:04;51701.22;;;-142.34;25.22
12951;BME280;6540;50.858;7.232;2023-04-15T11:28:33;51773.84;;;-142.34;26.73
12951;BME280;6540;50.858;7.232;2023-04-15T11:33:35;51725.44;;;-142.34;25.56
12951;BME280;6540;50.858;7.232;2023-04-15T11:36:01;51725.44;;;-142.34;25.76
12951;BME280;6540;50.858;7.232;2023-04-15T11:38:28;51749.66;;;-142.34;27.49
12951;BME280;6540;50.858;7.232;2023-04-15T11:40:54;51689.13;;;-142.34;25.68
12951;BME280;6540;50.858;7.232;2023-04-15T11:43:21;51711.31;;;-142.34;24.61
12951;BME280;6540;50.858;7.232;2023-04-15T11:45:55;51790.00;;;-142.34;26.92
12951;BME280;6540;50.858;7.232;2023-04-15T11:48:32;51729.47;;;-142.34;26.37
12951;BME280;6540;50.858;7.232;2023-04-15T11:51:00;51761.75;;;-142.34;27.21
12951;BME280;6540;50.858;7.232;2023-04-15T11:53:49;51741.56;;;-142.34;26.05
12951;BME280;6540;50.858;7.232;2023-04-15T11:56:25;51715.34;;;-142.34;24.89
12951;BME280;6540;50.858;7.232;2023-04-15T11:58:56;51739.56;;;-142.34;25.09
12951;BME280;6540;50.858;7.232;2023-04-15T12:01:35;51781.91;;;-142.34;27.23
12951;BME280;6540;50.858;7.232;2023-04-15T12:04:13;51755.69;;;-142.34;26.29
12951;BME280;6540;50.858;7.232;2023-04-15T12:06:39;51785.94;;;-142.34;28.04
12951;BME280;6540;50.858;7.232;2023-04-15T12:14:09;51757.72;;;-142.34;27.00
12951;BME280;6540;50.858;7.232;2023-04-15T12:16:40;51787.97;;;-142.34;26.62
12951;BME280;6540;50.858;7.232;2023-04-15T12:19:10;51761.75;;;-142.34;27.63
12951;BME280;6540;50.858;7.232;2023-04-15T12:21:37;51761.75;;;-142.34;26.94
12951;BME280;6540;50.858;7.232;2023-04-15T12:24:05;51822.25;;;-142.34;27.37
12951;BME280;6540;50.858;7.232;2023-04-15T12:26:45;51816.22;;;-142.34;26.78
12951;BME280;6540;50.858;7.232;2023-04-15T12:29:12;51761.75;;;-142.34;25.65
12951;BME280;6540;50.858;7.232;2023-04-15T12:34:14;51794.03;;;-142.34;27.76
12951;BME280;6540;50.858;7.232;2023-04-15T12:36:40;51755.69;;;-142.34;27.49
12951;BME280;6540;50.858;7.232;2023-04-15T12:39:05;51798.06;;;-142.34;27.44
12951;BME280;6540;50.858;7.232;2023-04-15T12:41:32;51773.84;;;-142.34;26.85
12951;BME280;6540;50.858;7.232;2023-04-15T12:43:57;51765.78;;;-142.34;28.89
12951;BME280;6540;50.858;7.232;2023-04-15T12:46:23;51787.97;;;-142.34;27.49
12951;BME280;6540;50.858;7.232;2023-04-15T12:48:49;51737.53;;;-142.34;26.68
12951;BME280;6540;50.858;7.232;2023-04-15T12:51:16;51796.03;;;-142.34;27.92
12951;BME280;6540;50.858;7.232;2023-04-15T12:53:41;51745.59;;;-142.34;28.02
12951;BME280;6540;50.858;7.232;2023-04-15T12:56:06;51777.88;;;-142.34;26.65
12951;BME280;6540;50.858;7.232;2023-04-15T12:58:32;51822.25;;;-142.34;27.16
12951;BME280;6540;50.858;7.232;2023-04-15T13:00:57;51767.81;;;-142.34;26.47
12951;BME280;6540;50.858;7.232;2023-04-15T13:03:22;51769.81;;;-142.34;26.12
12951;BME280;6540;50.858;7.232;2023-04-15T13:05:48;51729.47;;;-142.34;26.22
12951;BME280;6540;50.858;7.232;2023-04-15T13:08:13;51743.59;;;-142.34;27.13